createdAt,value
2022-12-18T00:01:28.528Z,94.43
2022-12-18T00:03:56.943Z,94.37
2022-12-18T00:06:25.621Z,93.85
2022-12-18T00:08:53.160Z,93.71
2022-12-18T00:11:22.676Z,93.71
2022-12-18T00:13:50.278Z,94.12
2022-12-18T00:16:23.079Z,93.23
2022-12-18T00:18:51.646Z,93.32
2022-12-18T00:21:19.517Z,93.47
2022-12-18T00:23:48.404Z,92.94
2022-12-18T00:26:18.442Z,93.58
2022-12-18T00:28:46.058Z,93.53
2022-12-18T00:31:18.940Z,92.96
2022-12-18T00:33:46.074Z,93.01
2022-12-18T00:36:25.934Z,93.66
2022-12-18T00:38:54.962Z,94.64
2022-12-18T00:41:41.281Z,94.87
2022-12-18T00:44:11.244Z,94.83
2022-12-18T00:46:38.467Z,94.83
2022-12-18T00:49:06.180Z,95.03
2022-12-18T00:51:33.452Z,95.35
2022-12-18T00:54:00.812Z,95.16
2022-12-18T00:56:27.884Z,94.88
2022-12-18T00:58:55.397Z,95.28
2022-12-18T01:01:22.988Z,94.96
2022-12-18T01:03:50.225Z,93.98
2022-12-18T01:06:17.842Z,94.27
2022-12-18T01:08:45.176Z,94.35
2022-12-18T01:11:15.282Z,94.26
2022-12-18T01:13:42.993Z,93.40
2022-12-18T01:16:12.867Z,93.79
2022-12-18T01:18:40.310Z,94.26
2022-12-18T01:21:12.435Z,93.86
2022-12-18T01:23:39.967Z,94.00
2022-12-18T01:26:12.810Z,94.09
2022-12-18T01:28:41.046Z,94.63
2022-12-18T01:31:34.519Z,94.00
2022-12-18T01:34:02.604Z,93.96
2022-12-18T01:36:37.588Z,93.68
2022-12-18T01:39:07.257Z,93.79
2022-12-18T01:41:57.258Z,93.26
2022-12-18T01:45:02.088Z,93.74
2022-12-18T01:47:48.651Z,93.47
2022-12-18T01:50:25.992Z,93.78
2022-12-18T01:52:56.310Z,93.44
2022-12-18T01:55:26.353Z,93.07
2022-12-18T01:57:55.052Z,93.12
2022-12-18T02:00:24.237Z,93.36
2022-12-18T02:02:51.633Z,93.39
2022-12-18T02:05:29.122Z,93.54
2022-12-18T02:08:08.269Z,94.02
2022-12-18T02:11:14.143Z,93.67
2022-12-18T02:14:14.016Z,93.18
2022-12-18T02:17:04.544Z,93.31
2022-12-18T02:19:37.407Z,92.88
2022-12-18T02:22:36.412Z,93.51
2022-12-18T02:25:22.256Z,94.00
2022-12-18T02:27:50.153Z,93.92
2022-12-18T02:30:17.753Z,94.08
2022-12-18T02:32:48.193Z,94.32
2022-12-18T02:35:18.845Z,94.93
2022-12-18T02:37:46.968Z,94.87
2022-12-18T02:40:15.474Z,95.58
2022-12-18T02:42:42.713Z,95.46
2022-12-18T02:45:10.290Z,95.55
2022-12-18T02:47:39.839Z,95.43
2022-12-18T02:50:30.813Z,95.28
2022-12-18T02:53:00.917Z,95.29
2022-12-18T02:55:41.806Z,94.85
2022-12-18T02:58:47.901Z,95.09
2022-12-18T03:01:18.789Z,94.72
2022-12-18T03:03:53.393Z,94.22
2022-12-18T03:06:27.678Z,94.28
2022-12-18T03:09:01.037Z,94.53
2022-12-18T03:11:48.617Z,94.50
2022-12-18T03:14:17.197Z,94.04
2022-12-18T03:16:45.320Z,93.74
2022-12-18T03:19:17.962Z,93.73
2022-12-18T03:21:48.725Z,93.53
2022-12-18T03:24:16.335Z,93.29
2022-12-18T03:26:46.039Z,93.17
2022-12-18T03:29:22.784Z,92.97
2022-12-18T03:31:54.295Z,92.71
2022-12-18T03:34:24.985Z,92.26
2022-12-18T03:36:52.155Z,92.94
2022-12-18T03:39:20.228Z,92.69
2022-12-18T03:42:02.973Z,92.84
2022-12-18T03:44:41.013Z,92.84
2022-12-18T03:47:16.949Z,92.34
2022-12-18T03:50:02.075Z,92.66
2022-12-18T03:52:31.852Z,92.83
2022-12-18T03:55:00.523Z,92.56
2022-12-18T03:57:30.614Z,92.93
2022-12-18T04:00:14.938Z,93.35
2022-12-18T04:02:50.768Z,93.33
2022-12-18T04:05:18.942Z,93.89
2022-12-18T04:07:47.714Z,93.57
2022-12-18T04:10:16.106Z,93.01
2022-12-18T04:12:43.272Z,92.79
2022-12-18T04:15:11.770Z,93.21
2022-12-18T04:17:39.712Z,93.17
2022-12-18T04:20:07.134Z,93.04
2022-12-18T04:22:34.289Z,93.05
2022-12-18T04:25:01.473Z,92.99
2022-12-18T04:27:28.599Z,92.57
2022-12-18T04:29:55.763Z,92.83
2022-12-18T04:32:22.864Z,92.75
2022-12-18T04:34:49.964Z,93.02
2022-12-18T04:37:17.102Z,93.02
2022-12-18T04:39:44.216Z,92.91
2022-12-18T04:42:11.380Z,93.29
2022-12-18T04:44:38.513Z,92.80
2022-12-18T04:47:05.662Z,93.12
2022-12-18T04:49:32.776Z,93.19
2022-12-18T04:51:59.929Z,93.30
2022-12-18T04:54:27.024Z,93.02
2022-12-18T04:56:54.169Z,93.66
2022-12-18T04:59:22.349Z,93.30
2022-12-18T05:01:50.808Z,93.53
2022-12-18T05:04:18.131Z,93.77
2022-12-18T05:06:45.374Z,93.87
2022-12-18T05:09:12.515Z,93.77
2022-12-18T05:11:39.673Z,94.01
2022-12-18T05:14:06.793Z,94.15
2022-12-18T05:16:34.005Z,93.82
2022-12-18T05:19:01.109Z,93.98
2022-12-18T05:21:28.242Z,93.35
2022-12-18T05:23:55.361Z,93.18
2022-12-18T05:26:22.446Z,93.41
2022-12-18T05:28:49.606Z,93.52
2022-12-18T05:31:16.757Z,93.38
2022-12-18T05:33:44.272Z,93.83
2022-12-18T05:36:12.338Z,93.78
2022-12-18T05:38:40.209Z,93.54
2022-12-18T05:41:08.228Z,93.96
2022-12-18T05:43:37.457Z,94.01
2022-12-18T05:46:06.814Z,94.47
2022-12-18T05:48:34.454Z,94.98
2022-12-18T05:51:07.444Z,94.65
2022-12-18T05:53:35.198Z,94.86
2022-12-18T05:56:07.714Z,94.62
2022-12-18T05:58:35.463Z,94.42
2022-12-18T06:01:10.849Z,94.71
2022-12-18T06:03:38.171Z,94.01
2022-12-18T06:06:05.681Z,93.85
2022-12-18T06:08:32.837Z,94.35
2022-12-18T06:10:59.977Z,93.74
2022-12-18T06:13:27.088Z,94.16
2022-12-18T06:15:54.237Z,94.04
2022-12-18T06:18:21.343Z,94.30
2022-12-18T06:20:56.840Z,94.79
2022-12-18T06:23:24.021Z,94.99
2022-12-18T06:25:51.569Z,95.18
2022-12-18T06:28:19.252Z,94.67
2022-12-18T06:30:47.862Z,95.04
2022-12-18T06:33:15.996Z,95.45
2022-12-18T06:35:43.251Z,95.34
2022-12-18T06:38:10.415Z,95.33
2022-12-18T06:40:39.475Z,95.41
2022-12-18T06:43:07.091Z,95.07
2022-12-18T06:45:34.621Z,94.78
2022-12-18T06:48:01.967Z,94.54
2022-12-18T06:50:29.231Z,94.23
2022-12-18T06:52:57.025Z,94.16
2022-12-18T06:55:24.207Z,94.13
2022-12-18T06:57:51.347Z,94.13
2022-12-18T07:00:18.768Z,93.90
2022-12-18T07:02:45.963Z,94.06
2022-12-18T07:05:13.144Z,93.97
2022-12-18T07:07:40.369Z,94.32
2022-12-18T07:10:07.790Z,94.58
2022-12-18T07:12:35.041Z,94.38
2022-12-18T07:15:02.123Z,94.44
2022-12-18T07:17:30.461Z,95.17
2022-12-18T07:19:57.616Z,94.53
2022-12-18T07:22:26.260Z,94.73
2022-12-18T07:24:53.347Z,94.76
2022-12-18T07:27:20.489Z,94.79
2022-12-18T07:29:47.599Z,94.43
2022-12-18T07:32:14.923Z,94.26
2022-12-18T07:34:42.331Z,94.37
2022-12-18T07:37:09.451Z,94.47
2022-12-18T07:39:36.592Z,94.27
2022-12-18T07:42:22.436Z,94.71
2022-12-18T07:44:50.314Z,94.49
2022-12-18T07:47:17.424Z,94.17
2022-12-18T07:49:44.642Z,94.05
2022-12-18T07:52:13.270Z,93.39
2022-12-18T07:54:41.211Z,93.28
2022-12-18T07:57:16.538Z,93.72
2022-12-18T07:59:54.502Z,94.16
2022-12-18T08:02:21.678Z,93.92
2022-12-18T08:04:49.088Z,94.46
2022-12-18T08:07:16.177Z,93.97
2022-12-18T08:09:43.306Z,93.89
2022-12-18T08:12:10.415Z,93.70
2022-12-18T08:14:37.823Z,93.83
2022-12-18T08:17:05.006Z,93.60
2022-12-18T08:19:32.156Z,94.13
2022-12-18T08:21:59.254Z,93.47
2022-12-18T08:24:26.608Z,93.46
2022-12-18T08:27:20.917Z,93.23
2022-12-18T08:29:40.833Z,93.35
2022-12-18T08:32:08.231Z,93.36
2022-12-18T08:34:35.484Z,93.81
2022-12-18T08:37:02.585Z,93.23
2022-12-18T08:39:29.783Z,93.48
2022-12-18T08:42:15.692Z,93.32
2022-12-18T08:44:42.856Z,93.33
2022-12-18T08:47:09.969Z,93.21
2022-12-18T08:49:37.381Z,93.01
2022-12-18T08:52:04.704Z,93.11
2022-12-18T08:54:31.882Z,93.55
2022-12-18T08:56:58.975Z,93.66
2022-12-18T08:59:26.738Z,93.81
2022-12-18T09:01:55.016Z,93.69
2022-12-18T09:04:23.215Z,93.45
2022-12-18T09:06:50.583Z,93.39
2022-12-18T09:09:18.019Z,93.57
2022-12-18T09:11:45.368Z,92.77
2022-12-18T09:14:12.817Z,92.76
2022-12-18T09:16:40.166Z,93.05
2022-12-18T09:19:07.690Z,93.03
2022-12-18T09:21:37.961Z,92.32
2022-12-18T09:24:08.017Z,92.84
2022-12-18T09:26:36.811Z,92.65
2022-12-18T09:29:04.587Z,93.10
2022-12-18T09:31:31.834Z,93.65
2022-12-18T09:33:59.177Z,93.70
2022-12-18T09:36:26.471Z,93.79
2022-12-18T09:38:54.267Z,93.15
2022-12-18T09:41:41.521Z,93.90
2022-12-18T09:48:30.034Z,93.46
2022-12-18T09:51:02.132Z,93.49
2022-12-18T09:53:34.287Z,93.50
2022-12-18T09:56:03.078Z,94.20
2022-12-18T09:58:46.166Z,94.43
2022-12-18T10:01:15.860Z,94.67
2022-12-18T10:03:43.399Z,94.96
2022-12-18T10:06:19.433Z,94.71
2022-12-18T10:08:47.056Z,94.86
2022-12-18T10:11:34.009Z,95.01
2022-12-18T10:14:15.543Z,95.55
2022-12-18T10:16:52.914Z,95.91
2022-12-18T10:19:24.097Z,95.52
2022-12-18T10:22:03.445Z,95.76
2022-12-18T10:24:41.372Z,95.91
2022-12-18T10:27:19.930Z,95.91
2022-12-18T10:29:47.522Z,95.88
2022-12-18T10:32:23.207Z,95.75
2022-12-18T10:34:59.868Z,95.61
2022-12-18T10:37:29.786Z,95.77
2022-12-18T10:40:10.678Z,95.67
2022-12-18T10:42:38.283Z,95.65
2022-12-18T10:45:16.475Z,95.67
2022-12-18T10:47:49.559Z,95.94
2022-12-18T10:50:26.241Z,96.42
2022-12-18T10:53:00.919Z,96.17
2022-12-18T10:55:33.642Z,96.39
2022-12-18T10:58:26.571Z,96.32
2022-12-18T11:01:21.234Z,96.26
2022-12-18T11:03:51.842Z,96.53
2022-12-18T11:06:25.415Z,95.91
2022-12-18T11:09:08.054Z,96.02
2022-12-18T11:11:40.622Z,96.36
2022-12-18T11:14:23.569Z,96.81
2022-12-18T11:19:41.110Z,96.40
2022-12-18T11:22:22.867Z,96.18
2022-12-18T11:25:29.434Z,95.84
2022-12-18T11:27:43.166Z,96.04
2022-12-18T11:30:11.314Z,96.43
2022-12-18T11:32:40.678Z,95.97
2022-12-18T11:35:31.881Z,96.04
2022-12-18T11:38:08.043Z,96.21
2022-12-18T11:40:41.120Z,96.47
2022-12-18T11:43:37.305Z,96.04
2022-12-18T11:46:19.557Z,95.74
2022-12-18T11:49:07.076Z,95.51
2022-12-18T11:52:13.705Z,95.24
2022-12-18T11:54:41.048Z,95.69
2022-12-18T11:57:08.334Z,95.11
2022-12-18T11:59:59.380Z,95.37
2022-12-18T12:02:45.374Z,95.89
2022-12-18T12:05:43.648Z,95.78
2022-12-18T12:08:19.375Z,96.41
2022-12-18T12:11:08.969Z,96.04
2022-12-18T12:13:51.344Z,95.81
2022-12-18T12:16:36.127Z,95.56
2022-12-18T12:19:17.302Z,95.90
2022-12-18T12:21:59.557Z,96.57
2022-12-18T12:24:55.751Z,96.33
2022-12-18T12:27:52.143Z,96.04
2022-12-18T12:30:22.989Z,96.22
2022-12-18T12:33:28.054Z,95.20
2022-12-18T12:36:13.568Z,95.37
2022-12-18T12:39:02.356Z,95.71
2022-12-18T12:41:52.142Z,95.46
2022-12-18T12:44:30.895Z,94.80
2022-12-18T12:47:01.777Z,94.62
2022-12-18T12:49:36.310Z,94.12
2022-12-18T12:52:12.296Z,94.52
2022-12-18T12:54:40.098Z,94.49
2022-12-18T12:57:23.505Z,94.58
2022-12-18T13:00:04.735Z,94.23
2022-12-18T13:02:44.111Z,94.59
2022-12-18T13:05:23.412Z,94.71
2022-12-18T13:08:00.783Z,94.76
2022-12-18T13:10:34.097Z,94.71
2022-12-18T13:13:13.353Z,94.38
2022-12-18T13:15:42.375Z,94.56
2022-12-18T13:18:09.663Z,93.93
2022-12-18T13:20:44.710Z,94.31
2022-12-18T13:23:24.378Z,93.87
2022-12-18T13:25:53.870Z,94.19
2022-12-18T13:28:49.746Z,93.73
2022-12-18T13:31:41.839Z,94.16
2022-12-18T13:34:27.914Z,94.00
2022-12-18T13:37:40.817Z,94.04
2022-12-18T13:40:40.415Z,93.67
2022-12-18T13:43:22.858Z,93.81
2022-12-18T13:46:27.139Z,93.03
2022-12-18T13:49:06.553Z,93.02
2022-12-18T13:51:35.216Z,93.35
2022-12-18T13:54:41.523Z,93.56
2022-12-18T13:57:35.624Z,94.36
2022-12-18T14:00:31.540Z,94.20
2022-12-18T14:02:59.575Z,93.88
2022-12-18T14:05:32.742Z,94.65
2022-12-18T14:08:03.135Z,94.23
2022-12-18T14:10:49.167Z,94.22
2022-12-18T14:13:24.507Z,93.74
2022-12-18T14:15:52.245Z,93.99
2022-12-18T14:18:45.368Z,93.81
2022-12-18T14:21:24.724Z,93.57
2022-12-18T14:24:19.661Z,93.31
2022-12-18T14:26:48.677Z,92.71
2022-12-18T14:29:24.830Z,93.67
2022-12-18T14:32:13.484Z,93.81
2022-12-18T14:34:49.739Z,93.42
2022-12-18T14:37:22.390Z,93.60
2022-12-18T14:40:11.042Z,94.28
2022-12-18T14:42:38.844Z,93.67
2022-12-18T14:45:41.620Z,93.83
2022-12-18T14:48:12.752Z,92.71
2022-12-18T14:50:41.609Z,93.11
2022-12-18T14:53:21.012Z,93.38
2022-12-18T14:55:49.752Z,93.48
2022-12-18T14:58:18.214Z,93.15
2022-12-18T15:00:45.543Z,93.61
2022-12-18T15:03:20.082Z,93.75
2022-12-18T15:05:47.939Z,93.59
2022-12-18T15:08:29.478Z,93.94
2022-12-18T15:10:57.843Z,94.59
2022-12-18T15:13:25.745Z,94.54
2022-12-18T15:15:54.563Z,94.70
2022-12-18T15:18:42.685Z,94.68
2022-12-18T15:21:11.776Z,94.91
2022-12-18T15:23:45.302Z,94.51
2022-12-18T15:26:15.539Z,94.66
2022-12-18T15:28:45.676Z,94.83
2022-12-18T15:31:13.212Z,95.21
2022-12-18T15:33:45.159Z,94.46
2022-12-18T15:36:18.533Z,94.82
2022-12-18T15:38:54.395Z,94.78
2022-12-18T15:41:25.051Z,94.53
2022-12-18T15:43:53.666Z,94.66
2022-12-18T15:46:23.376Z,93.66
2022-12-18T15:49:01.174Z,94.21
2022-12-18T15:51:38.713Z,93.38
2022-12-18T15:54:07.473Z,93.53
2022-12-18T15:56:53.489Z,92.65
2022-12-18T15:59:21.770Z,92.96
2022-12-18T16:01:53.870Z,93.21
2022-12-18T16:04:22.727Z,93.04
2022-12-18T16:07:13.884Z,92.20
2022-12-18T16:09:38.089Z,92.55
2022-12-18T16:12:06.861Z,93.14
2022-12-18T16:14:34.367Z,93.05
2022-12-18T16:17:05.013Z,92.51
2022-12-18T16:19:32.322Z,93.32
2022-12-18T16:21:59.998Z,93.25
2022-12-18T16:24:32.502Z,93.36
2022-12-18T16:27:01.113Z,93.56
2022-12-18T16:29:29.363Z,92.94
2022-12-18T16:36:14.479Z,92.81
2022-12-18T16:38:41.795Z,93.09
2022-12-18T16:41:34.853Z,92.66
2022-12-18T16:44:02.267Z,92.64
2022-12-18T17:25:44.264Z,93.25
2022-12-18T18:26:48.454Z,91.79
2022-12-18T19:04:14.455Z,89.83
2022-12-18T19:06:42.659Z,90.55
2022-12-18T19:27:09.269Z,89.04
2022-12-18T19:29:36.835Z,89.39
2022-12-18T19:32:05.284Z,89.51
2022-12-18T19:34:32.479Z,89.27
2022-12-18T19:37:00.066Z,89.83
2022-12-18T19:39:27.592Z,89.46
2022-12-18T19:41:54.675Z,89.67
2022-12-18T19:44:21.851Z,89.35
2022-12-18T19:46:51.951Z,89.10
2022-12-18T19:58:28.095Z,88.31
2022-12-18T20:00:55.330Z,88.12
2022-12-18T20:03:28.887Z,88.65
2022-12-18T20:06:33.912Z,88.28
2022-12-18T20:09:04.949Z,88.24
2022-12-18T20:11:33.393Z,88.61
2022-12-18T20:14:03.827Z,88.13
2022-12-18T20:16:31.033Z,88.47
2022-12-18T20:18:58.840Z,88.69
2022-12-18T20:21:26.436Z,88.16
2022-12-18T20:23:55.699Z,88.20
2022-12-18T20:26:24.004Z,88.84
2022-12-18T20:28:51.519Z,88.24
2022-12-18T20:31:18.840Z,87.98
2022-12-18T20:33:48.659Z,87.69
2022-12-18T20:36:20.155Z,88.17
2022-12-18T20:38:50.840Z,88.06
2022-12-18T20:41:20.733Z,87.97
2022-12-18T20:43:48.296Z,88.17
2022-12-18T20:46:17.119Z,87.95
2022-12-18T20:48:44.768Z,87.95
2022-12-18T20:51:14.658Z,88.10
2022-12-18T20:53:42.469Z,88.33
2022-12-18T21:00:36.374Z,87.80
